Time;durP1;ratioP1;P1;durP2;ratioP2;P2;SDS_P1;SDS_P2;PMS_P1;PMS_P2;Temp;Humidity;BMP_temperature;BMP_pressure;BME280_temperature;BME280_humidity;BME280_pressure;Samples;Min_cycle;Max_cycle;Signal;HPM_P1;HPM_P2
2021/11/14 00:00:42;;;;;;;;;;;;;;;13.48;61.96;100921.09;4864729;28;127740;-59
2021/11/14 00:03:08;;;;;;;;;;;;;;;13.49;62.04;100923.53;4867034;28;98026;-68
2021/11/14 00:05:34;;;;;;;;;;;;;;;13.49;61.89;100928.13;4883524;28;98002;-59
2021/11/14 00:08:00;;;;;;;;;;;;;;;13.49;61.83;100923.53;4883444;28;99443;-59
2021/11/14 00:10:27;;;;;;;;;;;;;;;13.49;61.88;100931.66;4883630;28;121581;-59
2021/11/14 00:12:54;;;;;;;;;;;;;;;13.47;61.81;100933.81;4882726;28;98263;-59
2021/11/14 00:15:19;;;;;;;;;;;;;;;13.49;61.61;100933.56;4865197;28;97722;-59
2021/11/14 00:17:45;;;;;;;;;;;;;;;13.49;61.66;100937.06;4865808;28;128140;-59
2021/11/14 00:20:14;;;;;;;;;;;;;;;13.49;61.71;100949.78;4865603;28;109590;-68
2021/11/14 00:22:40;;;;;;;;;;;;;;;13.48;61.96;100943.56;4864410;28;97927;-67
2021/11/14 00:25:07;;;;;;;;;;;;;;;13.48;62.04;100951.69;4866984;28;97947;-68
2021/11/14 00:27:33;;;;;;;;;;;;;;;13.48;61.70;100948.19;4847818;28;98274;-59
2021/11/14 00:29:59;;;;;;;;;;;;;;;13.47;62.02;100950.06;4865226;28;127654;-68
2021/11/14 00:32:25;;;;;;;;;;;;;;;13.47;61.89;100952.75;4846526;28;126459;-59
2021/11/14 00:34:51;;;;;;;;;;;;;;;13.49;61.66;100955.22;4849300;28;98030;-59
2021/11/14 00:37:18;;;;;;;;;;;;;;;13.48;62.17;100956.31;4845629;28;128138;-62
2021/11/14 00:39:44;;;;;;;;;;;;;;;13.48;61.99;100953.59;4866213;28;99000;-68
2021/11/14 00:42:10;;;;;;;;;;;;;;;13.48;61.91;100957.13;4866334;28;98118;-68
2021/11/14 00:44:36;;;;;;;;;;;;;;;13.48;62.03;100951.69;4865393;28;122490;-68
2021/11/14 00:47:02;;;;;;;;;;;;;;;13.47;62.07;100955.47;4864351;28;127935;-67
2021/11/14 00:49:28;;;;;;;;;;;;;;;13.47;61.95;100957.38;4865123;28;118947;-59
2021/11/14 00:51:54;;;;;;;;;;;;;;;13.48;61.69;100959.03;4846423;28;120054;-59
2021/11/14 00:54:20;;;;;;;;;;;;;;;13.48;61.93;100959.03;4865046;28;97872;-68
2021/11/14 00:56:46;;;;;;;;;;;;;;;13.49;61.78;100963.34;4864147;28;127255;-58
2021/11/14 00:59:12;;;;;;;;;;;;;;;13.48;61.75;100970.66;4865294;28;99030;-59
2021/11/14 01:01:38;;;;;;;;;;;;;;;13.49;61.93;100966.84;4865061;28;98013;-59
2021/11/14 01:04:04;;;;;;;;;;;;;;;13.49;61.58;100972.28;4864775;28;123917;-59
2021/11/14 01:06:30;;;;;;;;;;;;;;;13.49;61.90;100966.03;4865315;28;128047;-58
2021/11/14 01:08:58;;;;;;;;;;;;;;;13.49;61.93;100966.03;4865737;28;98422;-68
2021/11/14 01:11:24;;;;;;;;;;;;;;;13.49;61.72;100971.47;4831842;28;122155;-68
2021/11/14 01:13:51;;;;;;;;;;;;;;;13.50;62.12;100975.78;4862904;28;122595;-58
2021/11/14 01:16:19;;;;;;;;;;;;;;;13.47;61.68;100979.84;4847683;28;98137;-68
2021/11/14 01:18:44;;;;;;;;;;;;;;;13.49;62.00;100977.69;4846698;28;98330;-68
2021/11/14 01:21:12;;;;;;;;;;;;;;;13.49;61.88;100977.69;4864604;28;125984;-59
2021/11/14 01:23:39;;;;;;;;;;;;;;;13.50;61.43;100967.66;4864455;28;97839;-59
2021/11/14 01:26:04;;;;;;;;;;;;;;;13.49;61.70;100974.97;4865194;28;126329;-59
2021/11/14 01:28:30;;;;;;;;;;;;;;;13.49;61.71;100971.47;4864638;28;123175;-59
2021/11/14 01:30:58;;;;;;;;;;;;;;;13.50;62.04;100973.06;4844080;28;114437;-59
2021/11/14 01:33:26;;;;;;;;;;;;;;;13.49;61.70;100982.28;4848868;28;98498;-68
2021/11/14 01:35:55;;;;;;;;;;;;;;;13.49;61.80;100976.88;4845607;28;117422;-68
2021/11/14 01:38:21;;;;;;;;;;;;;;;13.49;61.76;100977.69;4865154;28;99324;-60
2021/11/14 01:40:52;;;;;;;;;;;;;;;13.49;61.83;100982.28;4865393;28;100902;-59
2021/11/14 01:43:21;;;;;;;;;;;;;;;13.50;62.01;100986.63;4863733;28;97854;-59
2021/11/14 01:45:47;;;;;;;;;;;;;;;13.49;61.67;100980.41;4864609;28;98275;-69
2021/11/14 01:48:13;;;;;;;;;;;;;;;13.49;61.83;100985.00;4864296;28;122805;-69
2021/11/14 01:50:39;;;;;;;;;;;;;;;13.49;61.82;100982.28;4863775;28;100132;-68
2021/11/14 01:53:05;;;;;;;;;;;;;;;13.48;61.63;100991.50;4863014;28;121300;-67
2021/11/14 01:55:31;;;;;;;;;;;;;;;13.48;61.62;100996.94;4865442;28;98324;-67
2021/11/14 01:57:57;;;;;;;;;;;;;;;13.46;61.66;100994.47;4846651;28;112140;-68
2021/11/14 02:00:29;;;;;;;;;;;;;;;13.47;61.86;100996.09;4866743;28;98256;-68
2021/11/14 02:02:55;;;;;;;;;;;;;;;13.45;61.86;100994.75;4846650;28;105196;-59
2021/11/14 02:05:23;;;;;;;;;;;;;;;13.44;61.72;100991.25;4859780;28;111539;-59
2021/11/14 02:07:57;;;;;;;;;;;;;;;13.44;61.50;100993.13;4865120;28;99130;-68
2021/11/14 02:10:24;;;;;;;;;;;;;;;13.42;62.04;100995.31;4862624;28;126399;-68
2021/11/14 02:12:50;;;;;;;;;;;;;;;13.40;61.87;101000.16;4844383;28;103056;-68
2021/11/14 02:15:15;;;;;;;;;;;;;;;13.40;61.92;101006.41;4846498;28;127973;-68
2021/11/14 02:17:41;;;;;;;;;;;;;;;13.39;61.86;101004.78;4862684;28;128910;-68
2021/11/14 02:20:08;;;;;;;;;;;;;;;13.38;61.93;101003.16;4864181;28;127333;-67
2021/11/14 02:22:34;;;;;;;;;;;;;;;13.37;61.82;101006.16;4864212;28;117402;-67
2021/11/14 02:25:00;;;;;;;;;;;;;;;13.37;61.87;101011.56;4867584;28;107394;-59
2021/11/14 02:27:26;;;;;;;;;;;;;;;13.36;61.66;101020.75;4866569;28;98798;-59
2021/11/14 02:29:52;;;;;;;;;;;;;;;13.34;61.76;101012.91;4883089;28;127573;-68
2021/11/14 02:32:18;;;;;;;;;;;;;;;13.34;61.96;101017.53;4874763;28;97691;-68
2021/11/14 02:34:44;;;;;;;;;;;;;;;13.32;61.79;101017.78;4867819;28;116382;-67
2021/11/14 02:37:10;;;;;;;;;;;;;;;13.31;61.70;101018.88;4867937;28;120289;-68
2021/11/14 02:39:36;;;;;;;;;;;;;;;13.31;61.64;101021.56;4868361;28;105546;-59
2021/11/14 02:42:02;;;;;;;;;;;;;;;13.29;61.74;101010.22;4868336;28;122505;-58
2021/11/14 02:44:28;;;;;;;;;;;;;;;13.29;61.71;101012.91;4868511;28;99413;-68
2021/11/14 02:46:54;;;;;;;;;;;;;;;13.28;61.88;101019.41;4867301;28;98337;-68
2021/11/14 02:49:20;;;;;;;;;;;;;;;13.29;61.84;101020.25;4866198;28;117168;-59
2021/11/14 02:51:46;;;;;;;;;;;;;;;13.28;61.96;101019.41;4867915;28;124258;-59
2021/11/14 02:54:12;;;;;;;;;;;;;;;13.29;61.70;101022.94;4866899;28;126822;-68
2021/11/14 02:56:38;;;;;;;;;;;;;;;13.27;61.92;101015.88;4849310;28;128273;-59
2021/11/14 02:59:04;;;;;;;;;;;;;;;13.27;61.82;101017.78;4865675;28;128274;-67
2021/11/14 03:01:37;;;;;;;;;;;;;;;13.27;61.66;101020.50;4849997;28;98090;-69
2021/11/14 03:04:04;;;;;;;;;;;;;;;13.28;61.67;101024.81;4867280;28;98407;-59
2021/11/14 03:06:31;;;;;;;;;;;;;;;13.26;61.60;101024.28;4867192;28;99129;-68
2021/11/14 03:08:57;;;;;;;;;;;;;;;13.27;61.89;101031.31;4848930;28;98026;-59
2021/11/14 03:11:23;;;;;;;;;;;;;;;13.27;61.53;101028.63;4867460;28;108886;-68
2021/11/14 03:13:49;;;;;;;;;;;;;;;13.27;61.91;101031.31;4874637;28;127934;-58
2021/11/14 03:16:18;;;;;;;;;;;;;;;13.27;61.71;101023.19;4871146;28;98365;-58
2021/11/14 03:18:44;;;;;;;;;;;;;;;13.27;61.80;101036.72;4885030;28;116578;-59
2021/11/14 03:21:10;;;;;;;;;;;;;;;13.27;61.79;101031.31;4885726;28;97946;-59
2021/11/14 03:23:36;;;;;;;;;;;;;;;13.26;61.89;101030.50;4884891;28;126147;-59
2021/11/14 03:26:02;;;;;;;;;;;;;;;13.26;61.89;101029.69;4888327;28;99072;-59
2021/11/14 03:28:28;;;;;;;;;;;;;;;13.26;61.58;101035.13;4872497;28;119733;-68
2021/11/14 03:30:55;;;;;;;;;;;;;;;13.27;61.84;101036.72;4887580;28;122271;-67
2021/11/14 03:33:21;;;;;;;;;;;;;;;13.26;61.83;101033.22;4886653;28;103520;-59
2021/11/14 03:35:51;;;;;;;;;;;;;;;13.27;61.86;101040.25;4887327;28;127461;-68
2021/11/14 03:38:18;;;;;;;;;;;;;;;13.27;61.72;101036.72;4879861;28;98240;-59
2021/11/14 03:40:44;;;;;;;;;;;;;;;13.27;61.64;101039.44;4869210;28;118199;-59
2021/11/14 03:43:10;;;;;;;;;;;;;;;13.27;61.76;101044.84;4873831;28;128039;-59
2021/11/14 03:45:36;;;;;;;;;;;;;;;13.27;61.63;101048.38;4885960;28;99096;-59
2021/11/14 03:48:02;;;;;;;;;;;;;;;13.26;61.77;101054.06;4888073;28;124495;-59
2021/11/14 03:50:28;;;;;;;;;;;;;;;13.26;61.81;101044.03;4885123;28;117102;-59
2021/11/14 03:52:54;;;;;;;;;;;;;;;13.26;61.76;101052.16;4885710;28;104100;-59
2021/11/14 03:55:20;;;;;;;;;;;;;;;13.26;61.65;101051.38;4873471;28;128899;-59
2021/11/14 03:57:46;;;;;;;;;;;;;;;13.26;62.02;101056.78;4866250;28;128771;-69
2021/11/14 04:00:27;;;;;;;;;;;;;;;13.26;61.88;101054.06;4867627;28;97917;-59
2021/11/14 04:02:54;;;;;;;;;;;;;;;13.26;61.98;101051.38;4871856;28;118837;-59
2021/11/14 04:05:20;;;;;;;;;;;;;;;13.26;61.61;101046.75;4887406;28;98741;-68
2021/11/14 04:07:46;;;;;;;;;;;;;;;13.24;61.54;101046.22;4884845;28;121467;-59
2021/11/14 04:10:12;;;;;;;;;;;;;;;13.26;61.78;101043.25;4871327;28;102386;-69
2021/11/14 04:12:38;;;;;;;;;;;;;;;13.25;61.74;101058.69;4868901;28;97981;-68
2021/11/14 04:15:08;;;;;;;;;;;;;;;13.27;61.85;101077.34;4876192;28;97973;-59
2021/11/14 04:17:34;;;;;;;;;;;;;;;13.25;61.84;101074.91;4887634;28;98345;-59
2021/11/14 04:20:01;;;;;;;;;;;;;;;13.27;61.83;101074.63;4885287;28;113418;-59
2021/11/14 04:22:27;;;;;;;;;;;;;;;13.26;61.89;101075.72;4883282;28;100740;-59
2021/11/14 04:24:53;;;;;;;;;;;;;;;13.24;61.77;101078.72;4884725;28;106912;-69
2021/11/14 04:27:19;;;;;;;;;;;;;;;13.25;61.90;101074.09;4886260;28;128577;-67
2021/11/14 04:29:45;;;;;;;;;;;;;;;13.24;61.97;101080.59;4884186;28;123227;-68
2021/11/14 04:32:11;;;;;;;;;;;;;;;13.26;61.99;101090.06;4867555;28;99517;-68
2021/11/14 04:34:37;;;;;;;;;;;;;;;13.26;61.85;101091.97;4883950;28;128636;-67
2021/11/14 04:37:03;;;;;;;;;;;;;;;13.26;61.84;101091.97;4882877;28;98209;-59
2021/11/14 04:39:29;;;;;;;;;;;;;;;13.26;61.94;101097.38;4865367;28;99673;-59
2021/11/14 04:41:55;;;;;;;;;;;;;;;13.27;62.04;101097.09;4865595;28;128900;-59
2021/11/14 04:44:20;;;;;;;;;;;;;;;13.26;62.01;101105.50;4871985;28;122496;-68
2021/11/14 04:46:46;;;;;;;;;;;;;;;13.26;61.94;101105.50;4886240;28;126604;-68
2021/11/14 04:49:12;;;;;;;;;;;;;;;13.26;62.01;101109.03;4868403;28;108861;-68
2021/11/14 04:51:38;;;;;;;;;;;;;;;13.27;61.84;101109.84;4868168;28;98388;-67
2021/11/14 04:54:04;;;;;;;;;;;;;;;13.27;61.77;101109.84;4883544;28;102246;-59
2021/11/14 04:56:30;;;;;;;;;;;;;;;13.27;61.71;101110.63;4866969;28;128177;-59
2021/11/14 04:58:56;;;;;;;;;;;;;;;13.26;61.88;101109.03;4846062;28;122779;-59
2021/11/14 05:01:22;;;;;;;;;;;;;;;13.27;61.94;101110.63;4847481;28;128129;-59
2021/11/14 05:03:48;;;;;;;;;;;;;;;13.29;62.04;101115.81;4846586;28;117787;-69
2021/11/14 05:06:15;;;;;;;;;;;;;;;13.29;61.99;101112.28;4866019;28;98004;-68
2021/11/14 05:08:41;;;;;;;;;;;;;;;13.30;61.83;101113.91;4864430;28;97941;-59
2021/11/14 05:11:07;;;;;;;;;;;;;;;13.30;62.09;101114.72;4884925;28;127998;-68
2021/11/14 05:13:33;;;;;;;;;;;;;;;13.30;61.90;101117.41;4866403;28;129472;-68
2021/11/14 05:15:59;;;;;;;;;;;;;;;13.31;62.25;101113.63;4883970;28;127661;-59
2021/11/14 05:18:24;;;;;;;;;;;;;;;13.31;61.86;101121.75;4882809;28;124296;-59
2021/11/14 05:20:50;;;;;;;;;;;;;;;13.33;61.95;101116.09;4883765;28;119156;-59
2021/11/14 05:23:16;;;;;;;;;;;;;;;13.31;62.02;101118.22;4884412;28;128114;-68
2021/11/14 05:25:43;;;;;;;;;;;;;;;13.33;61.84;101121.50;4857196;28;98082;-59
2021/11/14 05:28:09;;;;;;;;;;;;;;;13.32;62.30;101122.56;4863590;28;118095;-68
2021/11/14 05:30:35;;;;;;;;;;;;;;;13.32;61.80;101128.78;4847434;28;97835;-59
2021/11/14 05:33:02;;;;;;;;;;;;;;;13.31;62.25;101129.06;4861483;28;99099;-68
2021/11/14 05:35:28;;;;;;;;;;;;;;;13.30;61.95;101128.25;4864477;28;98292;-59
2021/11/14 05:37:54;;;;;;;;;;;;;;;13.31;62.00;101142.59;4882899;28;100122;-58
2021/11/14 05:40:20;;;;;;;;;;;;;;;13.30;61.97;101140.97;4884038;28;126026;-59
2021/11/14 05:42:46;;;;;;;;;;;;;;;13.29;61.84;101144.78;4863796;28;121801;-68
2021/11/14 05:45:11;;;;;;;;;;;;;;;13.29;61.86;101152.91;4863805;28;101067;-64
2021/11/14 05:47:37;;;;;;;;;;;;;;;13.28;62.14;101152.06;4864655;28;97847;-59
2021/11/14 05:50:05;;;;;;;;;;;;;;;13.27;62.24;101153.16;4871840;28;122342;-59
2021/11/14 05:52:31;;;;;;;;;;;;;;;13.26;62.02;101156.94;4883686;28;98573;-69
2021/11/14 05:54:56;;;;;;;;;;;;;;;13.27;61.87;101169.38;4879103;28;123738;-59
2021/11/14 05:57:22;;;;;;;;;;;;;;;13.25;62.17;101169.66;4884331;28;122627;-68
2021/11/14 06:07:15;;;;;;;;;;;;;;;13.25;62.30;101177.78;4882164;28;97978;-60
2021/11/14 06:09:41;;;;;;;;;;;;;;;13.25;62.14;101185.09;4865329;28;97988;-59
2021/11/14 06:12:07;;;;;;;;;;;;;;;13.26;61.86;101192.13;4863361;28;128146;-59
2021/11/14 06:14:33;;;;;;;;;;;;;;;13.24;62.23;101187.00;4864389;28;106964;-59
2021/11/14 06:17:00;;;;;;;;;;;;;;;13.25;62.21;101187.81;4864047;28;97819;-59
2021/11/14 06:19:26;;;;;;;;;;;;;;;13.26;62.09;101190.25;4867403;28;99176;-59
2021/11/14 06:21:52;;;;;;;;;;;;;;;13.26;62.23;101203.78;4884183;28;117035;-59
2021/11/14 06:24:18;;;;;;;;;;;;;;;13.26;62.00;101203.78;4875025;28;97742;-59
2021/11/14 06:26:45;;;;;;;;;;;;;;;13.27;62.22;101208.09;4867218;28;97887;-59
2021/11/14 06:29:11;;;;;;;;;;;;;;;13.27;61.98;101218.94;4881819;28;98795;-59
2021/11/14 06:31:37;;;;;;;;;;;;;;;13.29;62.10;101213.28;4877039;28;117039;-60
2021/11/14 06:34:03;;;;;;;;;;;;;;;13.29;62.20;101226.00;4850653;28;127229;-59
2021/11/14 06:36:29;;;;;;;;;;;;;;;13.31;62.10;101229.25;4880301;28;121219;-59
2021/11/14 06:38:55;;;;;;;;;;;;;;;13.31;61.93;101229.25;4896345;28;127825;-60
2021/11/14 06:41:21;;;;;;;;;;;;;;;13.32;61.92;101231.66;4892911;28;98617;-59
2021/11/14 06:43:46;;;;;;;;;;;;;;;13.33;61.99;101243.34;4899786;28;97969;-59
2021/11/14 06:46:12;;;;;;;;;;;;;;;13.34;61.88;101244.97;4892533;28;114406;-59
2021/11/14 06:48:38;;;;;;;;;;;;;;;13.34;61.75;101240.34;4894224;28;98660;-59
2021/11/14 06:51:04;;;;;;;;;;;;;;;13.35;61.91;101239.25;4878405;28;98849;-59
2021/11/14 06:53:30;;;;;;;;;;;;;;;13.37;62.06;101244.44;4901557;28;128239;-59
2021/11/14 06:55:56;;;;;;;;;;;;;;;13.38;62.12;101249.56;4892276;28;98352;-59
2021/11/14 06:58:22;;;;;;;;;;;;;;;13.40;62.13;101254.69;4899606;28;129197;-59
2021/11/14 07:00:50;;;;;;;;;;;;;;;13.40;62.02;101252.84;4892362;28;128494;-60
2021/11/14 07:03:16;;;;;;;;;;;;;;;13.41;62.03;101262.56;4897197;28;98636;-59
2021/11/14 07:05:42;;;;;;;;;;;;;;;13.44;61.96;101264.75;4898080;28;102758;-59
2021/11/14 07:08:09;;;;;;;;;;;;;;;13.45;61.90;101265.56;4901643;28;99485;-59
2021/11/14 07:10:35;;;;;;;;;;;;;;;13.46;61.89;101265.28;4893651;28;99665;-59
2021/11/14 07:13:01;;;;;;;;;;;;;;;13.48;62.11;101275.88;4884402;28;111611;-59
2021/11/14 07:15:27;;;;;;;;;;;;;;;13.48;62.09;101279.41;4892141;28;123459;-59
2021/11/14 07:17:53;;;;;;;;;;;;;;;13.50;62.28;101295.38;4902796;28;98412;-59
2021/11/14 07:20:19;;;;;;;;;;;;;;;13.49;62.01;101297.25;4875594;28;127618;-59
2021/11/14 07:22:45;;;;;;;;;;;;;;;13.51;61.90;101305.09;4901297;28;128242;-68
2021/11/14 07:25:14;;;;;;;;;;;;;;;13.53;61.95;101302.16;4893224;28;98671;-59
2021/11/14 07:27:42;;;;;;;;;;;;;;;13.54;61.89;101311.91;4880392;28;99137;-68
2021/11/14 07:30:09;;;;;;;;;;;;;;;13.55;62.15;101308.91;4893174;28;98925;-60
2021/11/14 07:32:35;;;;;;;;;;;;;;;13.56;62.24;101315.13;4894703;28;122498;-59
2021/11/14 07:35:01;;;;;;;;;;;;;;;13.57;61.90;101306.78;4901796;28;122039;-68
2021/11/14 07:37:27;;;;;;;;;;;;;;;13.60;61.96;101308.13;4901741;28;128192;-59
2021/11/14 07:39:53;;;;;;;;;;;;;;;13.63;62.00;101315.72;4897439;28;117648;-68
2021/11/14 07:42:19;;;;;;;;;;;;;;;13.64;62.25;101318.16;4904595;28;98260;-68
2021/11/14 07:44:45;;;;;;;;;;;;;;;13.68;62.19;101313.03;4898080;28;122522;-68
2021/11/14 07:47:10;;;;;;;;;;;;;;;13.70;61.95;101325.22;4898193;28;127894;-67
2021/11/14 07:49:36;;;;;;;;;;;;;;;13.73;62.28;101321.97;4898849;28;127399;-68
2021/11/14 07:52:03;;;;;;;;;;;;;;;13.77;62.06;101326.88;4896099;28;128160;-68
2021/11/14 07:54:28;;;;;;;;;;;;;;;13.81;61.88;101320.63;4900585;28;115749;-68
2021/11/14 07:56:54;;;;;;;;;;;;;;;13.83;62.09;101328.47;4899448;28;127657;-69
2021/11/14 07:59:20;;;;;;;;;;;;;;;13.86;61.90;101338.78;4895737;28;128120;-68
2021/11/14 08:01:46;;;;;;;;;;;;;;;13.89;62.16;101338.25;4897018;28;127335;-68
2021/11/14 08:04:13;;;;;;;;;;;;;;;13.92;62.10;101352.09;4887570;28;121571;-68
2021/11/14 08:06:39;;;;;;;;;;;;;;;13.95;61.97;101348.84;4900358;28;98901;-68
2021/11/14 08:09:05;;;;;;;;;;;;;;;13.99;61.86;101349.13;4903052;28;128105;-68
2021/11/14 08:11:31;;;;;;;;;;;;;;;14.02;61.90;101345.88;4899484;28;127392;-68
2021/11/14 08:13:57;;;;;;;;;;;;;;;14.06;61.70;101351.56;4897959;28;98257;-68
2021/11/14 08:16:23;;;;;;;;;;;;;;;14.09;61.92;101353.75;4891064;28;129155;-68
2021/11/14 08:18:49;;;;;;;;;;;;;;;14.13;61.68;101362.97;4903025;28;128393;-68
2021/11/14 08:21:15;;;;;;;;;;;;;;;14.15;62.07;101360.81;4891934;28;127056;-68
2021/11/14 08:23:41;;;;;;;;;;;;;;;14.18;61.71;101371.09;4895242;28;122433;-69
2021/11/14 08:26:07;;;;;;;;;;;;;;;14.23;61.79;101381.97;4887302;28;125986;-68
2021/11/14 08:28:32;;;;;;;;;;;;;;;14.27;61.86;101374.94;4905573;28;98946;-67
2021/11/14 08:30:58;;;;;;;;;;;;;;;14.30;61.91;101370.84;4886020;28;128515;-68
2021/11/14 08:33:25;;;;;;;;;;;;;;;14.36;61.71;101381.44;4904507;28;121945;-68
2021/11/14 08:35:51;;;;;;;;;;;;;;;14.39;61.70;101385.50;4889183;28;98414;-68
2021/11/14 08:38:17;;;;;;;;;;;;;;;14.41;62.07;101383.31;4903571;28;97990;-69
2021/11/14 08:40:43;;;;;;;;;;;;;;;14.43;61.98;101392.81;4901429;28;127336;-68
2021/11/14 08:43:09;;;;;;;;;;;;;;;14.45;62.02;101393.34;4898862;28;118519;-69
2021/11/14 08:45:35;;;;;;;;;;;;;;;14.46;61.91;101405.84;4893044;28;98818;-68
2021/11/14 08:48:01;;;;;;;;;;;;;;;14.51;62.10;101399.66;4904039;28;127927;-69
2021/11/14 08:50:31;;;;;;;;;;;;;;;14.57;61.96;101397.72;4897155;28;98035;-68
2021/11/14 08:52:57;;;;;;;;;;;;;;;14.60;62.06;101403.44;4904323;28;98433;-68
2021/11/14 08:55:24;;;;;;;;;;;;;;;14.64;61.79;101399.09;4902032;28;98397;-68
2021/11/14 08:57:50;;;;;;;;;;;;;;;14.71;61.86;101398.81;4896924;28;98925;-69
2021/11/14 09:00:18;;;;;;;;;;;;;;;14.77;61.78;101399.63;4896886;28;98410;-68
2021/11/14 09:02:44;;;;;;;;;;;;;;;14.82;61.61;101389.59;4893338;28;98174;-69
2021/11/14 09:05:10;;;;;;;;;;;;;;;14.88;61.52;101399.34;4891907;28;116970;-69
2021/11/14 09:07:36;;;;;;;;;;;;;;;14.97;61.40;101405.03;4905251;28;99189;-69
2021/11/14 09:10:03;;;;;;;;;;;;;;;15.05;61.70;101404.50;4896605;28;126846;-68
2021/11/14 09:12:28;;;;;;;;;;;;;;;15.15;61.71;101409.06;4902220;28;97895;-68
2021/11/14 09:14:56;;;;;;;;;;;;;;;15.24;61.38;101412.84;4898411;28;126922;-69
2021/11/14 09:17:23;;;;;;;;;;;;;;;15.37;61.21;101419.63;4886872;28;98160;-69
2021/11/14 09:19:49;;;;;;;;;;;;;;;15.56;61.27;101412.50;4892129;28;98323;-69
2021/11/14 09:22:15;;;;;;;;;;;;;;;15.76;60.71;101410.78;4901824;28;97940;-59
2021/11/14 09:24:41;;;;;;;;;;;;;;;15.92;60.74;101412.34;4895638;28;99901;-59
2021/11/14 09:27:07;;;;;;;;;;;;;;;16.07;60.60;101409.56;4901072;28;128454;-59
2021/11/14 09:29:34;;;;;;;;;;;;;;;16.18;60.51;101413.00;4895344;28;98759;-59
2021/11/14 09:32:00;;;;;;;;;;;;;;;16.31;60.47;101409.66;4882988;28;117429;-59
2021/11/14 09:34:25;;;;;;;;;;;;;;;16.40;60.62;101407.97;4897612;28;98735;-68
2021/11/14 09:36:51;;;;;;;;;;;;;;;16.41;60.67;101423.19;4879425;28;126819;-59
2021/11/14 09:39:17;;;;;;;;;;;;;;;16.40;60.99;101426.19;4894397;28;128404;-59
2021/11/14 09:41:46;;;;;;;;;;;;;;;16.43;60.91;101425.63;4901495;28;98005;-68
2021/11/14 09:44:13;;;;;;;;;;;;;;;16.45;61.04;101424.25;4897806;28;98267;-59
2021/11/14 09:46:44;;;;;;;;;;;;;;;16.48;61.14;101428.31;4890823;28;98642;-60
2021/11/14 09:49:10;;;;;;;;;;;;;;;16.51;61.13;101435.09;4899502;28;119277;-68
2021/11/14 09:51:36;;;;;;;;;;;;;;;16.51;61.09;101435.91;4888587;28;118279;-60
2021/11/14 09:54:02;;;;;;;;;;;;;;;16.52;61.26;101440.25;4887103;28;113895;-59
2021/11/14 09:56:27;;;;;;;;;;;;;;;16.54;61.34;101438.03;4872082;28;127375;-59
2021/11/14 09:58:53;;;;;;;;;;;;;;;16.57;61.27;101434.75;4872521;28;127746;-60
2021/11/14 10:01:19;;;;;;;;;;;;;;;16.61;61.42;101433.09;4893807;28;122693;-60
2021/11/14 10:03:45;;;;;;;;;;;;;;;16.63;61.45;101441.81;4895259;28;125441;-59
2021/11/14 10:06:11;;;;;;;;;;;;;;;16.63;61.60;101436.34;4898003;28;98690;-59
2021/11/14 10:08:40;;;;;;;;;;;;;;;16.66;61.34;101435.78;4885272;28;128508;-59
2021/11/14 10:11:06;;;;;;;;;;;;;;;16.69;61.49;101432.47;4890553;28;98073;-59
2021/11/14 10:13:34;;;;;;;;;;;;;;;16.72;61.35;101441.19;4896611;28;99205;-59
2021/11/14 10:16:07;;;;;;;;;;;;;;;16.73;61.38;101437.38;4890426;28;98527;-60
2021/11/14 10:18:33;;;;;;;;;;;;;;;16.72;61.52;101443.91;4896671;28;98461;-59
2021/11/14 10:21:02;;;;;;;;;;;;;;;16.69;61.85;101445.28;4885693;28;121971;-59
2021/11/14 10:23:28;;;;;;;;;;;;;;;16.67;61.91;101447.50;4897876;28;98483;-60
2021/11/14 10:25:55;;;;;;;;;;;;;;;16.66;61.96;101454.00;4892796;28;98341;-59
2021/11/14 10:28:25;;;;;;;;;;;;;;;16.64;61.87;101451.59;4896642;28;98569;-60
2021/11/14 10:30:51;;;;;;;;;;;;;;;16.63;61.96;101452.69;4885077;28;114376;-59
2021/11/14 10:33:18;;;;;;;;;;;;;;;16.62;61.88;101456.53;4896255;28;127193;-59
2021/11/14 10:35:44;;;;;;;;;;;;;;;16.62;62.04;101448.34;4870600;28;99112;-60
2021/11/14 10:38:13;;;;;;;;;;;;;;;16.61;62.07;101457.59;4886073;28;118445;-60
2021/11/14 10:40:50;;;;;;;;;;;;;;;16.62;62.14;101450.22;4883591;28;98023;-59
2021/11/14 10:43:17;;;;;;;;;;;;;;;16.61;62.16;101456.78;4896052;28;122141;-59
2021/11/14 10:45:43;;;;;;;;;;;;;;;16.60;62.12;101453.25;4892368;28;98889;-59
2021/11/14 10:48:18;;;;;;;;;;;;;;;16.57;62.25;101451.09;4899715;28;99173;-60
2021/11/14 10:50:45;;;;;;;;;;;;;;;16.57;62.24;101453.00;4892847;28;98342;-59
2021/11/14 10:53:13;;;;;;;;;;;;;;;16.57;62.12;101453.00;4879226;28;114106;-59
2021/11/14 10:55:43;;;;;;;;;;;;;;;16.56;62.10;101449.47;4891616;28;98572;-59
2021/11/14 10:58:10;;;;;;;;;;;;;;;16.55;62.34;101449.78;4894831;28;98251;-59
2021/11/14 11:00:36;;;;;;;;;;;;;;;16.55;62.29;101452.50;4898369;28;100576;-59
2021/11/14 11:03:02;;;;;;;;;;;;;;;16.54;62.49;101457.09;4900013;28;98844;-59
2021/11/14 11:05:29;;;;;;;;;;;;;;;16.55;62.51;101455.22;4892020;28;99142;-59
2021/11/14 11:08:12;;;;;;;;;;;;;;;16.54;62.30;101451.66;4900475;28;98181;-59
2021/11/14 11:10:42;;;;;;;;;;;;;;;16.54;62.34;101459.81;4892642;28;98175;-59
2021/11/14 11:13:12;;;;;;;;;;;;;;;16.53;62.41;101458.19;4899300;28;98426;-59
2021/11/14 11:15:38;;;;;;;;;;;;;;;16.53;62.58;101460.91;4890467;28;98490;-59
2021/11/14 11:18:05;;;;;;;;;;;;;;;16.52;62.46;101464.75;4899935;28;99526;-59
2021/11/14 11:20:31;;;;;;;;;;;;;;;16.53;62.38;101460.09;4896388;28;100002;-59
2021/11/14 11:23:03;;;;;;;;;;;;;;;16.53;62.39;101460.91;4889652;28;127926;-59
2021/11/14 11:25:36;;;;;;;;;;;;;;;16.53;62.52;101462.84;4893185;28;98698;-59
2021/11/14 11:28:04;;;;;;;;;;;;;;;16.53;62.71;101468.28;4895082;28;98033;-60
2021/11/14 11:30:43;;;;;;;;;;;;;;;16.52;62.58;101466.66;4892004;28;97911;-59
2021/11/14 11:33:09;;;;;;;;;;;;;;;16.51;62.58;101467.75;4893581;28;119049;-60
2021/11/14 11:35:35;;;;;;;;;;;;;;;16.50;62.74;101464.19;4903866;28;98353;-68
2021/11/14 11:38:02;;;;;;;;;;;;;;;16.50;62.78;101463.38;4904397;28;98904;-59
2021/11/14 11:40:28;;;;;;;;;;;;;;;16.49;62.70;101461.78;4891137;28;97787;-60
2021/11/14 11:42:54;;;;;;;;;;;;;;;16.47;62.75;101461.25;4885097;28;98415;-59
2021/11/14 11:45:31;;;;;;;;;;;;;;;16.44;62.68;101460.72;4898214;28;110294;-69
2021/11/14 11:47:58;;;;;;;;;;;;;;;16.42;62.97;101471.06;4895604;28;98421;-60
2021/11/14 11:50:26;;;;;;;;;;;;;;;16.40;62.88;101469.72;4863819;28;98248;-68
2021/11/14 11:52:52;;;;;;;;;;;;;;;16.37;62.94;101470.28;4884761;28;98822;-59
2021/11/14 11:55:18;;;;;;;;;;;;;;;16.36;62.89;101465.94;4892465;28;98969;-69
2021/11/14 11:57:44;;;;;;;;;;;;;;;16.34;63.15;101473.56;4894199;28;97894;-59
2021/11/14 12:00:11;;;;;;;;;;;;;;;16.31;62.91;101474.97;4892620;28;107932;-69
2021/11/14 12:02:37;;;;;;;;;;;;;;;16.30;63.08;101475.22;4899547;28;110207;-68
2021/11/14 12:05:08;;;;;;;;;;;;;;;16.25;63.22;101472.53;4897807;28;128248;-59
2021/11/14 12:07:35;;;;;;;;;;;;;;;16.23;63.14;101472.84;4895306;28;98637;-68
2021/11/14 12:10:04;;;;;;;;;;;;;;;16.20;63.11;101479.63;4896241;28;98919;-59
2021/11/14 12:12:32;;;;;;;;;;;;;;;16.20;63.37;101481.53;4902951;28;98568;-60
2021/11/14 12:15:11;;;;;;;;;;;;;;;16.16;63.43;101480.47;4895549;28;98338;-60
2021/11/14 12:17:38;;;;;;;;;;;;;;;16.14;63.35;101478.03;4900547;28;97919;-59
2021/11/14 12:20:12;;;;;;;;;;;;;;;16.13;63.60;101483.75;4893369;28;97841;-68
2021/11/14 12:22:45;;;;;;;;;;;;;;;16.11;63.52;101481.31;4872736;28;100662;-59
2021/11/14 12:25:34;;;;;;;;;;;;;;;16.09;63.43;101479.97;4891148;28;98338;-59
2021/11/14 12:28:08;;;;;;;;;;;;;;;16.08;63.43;101484.59;4889031;28;98615;-59
2021/11/14 12:30:41;;;;;;;;;;;;;;;16.07;63.31;101482.97;4888254;28;97937;-59
2021/11/14 12:33:08;;;;;;;;;;;;;;;16.06;63.48;101488.69;4903332;28;98266;-59
2021/11/14 12:35:42;;;;;;;;;;;;;;;16.05;63.30;101493.31;4882610;28;98289;-69